createdAt,value
2019-06-20T00:00:50.597Z,45.19
2019-06-20T00:03:23.670Z,45.38
2019-06-20T00:05:58.272Z,45.35
2019-06-20T00:08:32.688Z,45.43
2019-06-20T00:11:07.306Z,45.60
2019-06-20T00:13:41.694Z,45.62
2019-06-20T00:16:15.941Z,45.71
2019-06-20T00:18:48.853Z,45.65
2019-06-20T00:21:24.242Z,45.93
2019-06-20T00:23:58.678Z,46.05
2019-06-20T00:26:33.090Z,46.19
2019-06-20T00:29:07.651Z,46.43
2019-06-20T00:31:41.971Z,46.43
2019-06-20T00:34:16.275Z,46.52
2019-06-20T00:36:51.460Z,45.95
2019-06-20T00:39:25.947Z,45.49
2019-06-20T00:42:00.267Z,45.40
2019-06-20T00:44:34.703Z,45.40
2019-06-20T00:47:07.636Z,45.50
2019-06-20T00:49:41.932Z,45.73
2019-06-20T00:52:16.295Z,45.72
2019-06-20T00:54:50.732Z,45.23
2019-06-20T00:57:23.702Z,45.11
2019-06-20T00:59:57.938Z,44.98
2019-06-20T01:02:32.649Z,44.52
2019-06-20T01:07:20.302Z,45.11
2019-06-20T01:09:54.943Z,45.50
2019-06-20T01:12:29.311Z,45.76
2019-06-20T01:15:04.688Z,46.19
2019-06-20T01:17:40.273Z,46.22
2019-06-20T01:20:16.135Z,46.33
2019-06-20T01:22:50.712Z,46.35
2019-06-20T01:25:43.543Z,46.35
2019-06-20T01:28:17.788Z,46.46
2019-06-20T01:30:50.707Z,46.19
2019-06-20T01:33:24.939Z,45.62
2019-06-20T01:35:59.278Z,45.50
2019-06-20T01:40:42.886Z,45.71
2019-06-20T01:43:17.272Z,46.29
2019-06-20T01:45:51.676Z,46.29
2019-06-20T01:48:25.939Z,46.87
2019-06-20T01:51:00.346Z,46.29
2019-06-20T01:53:34.946Z,46.29
2019-06-20T01:56:09.648Z,46.49
2019-06-20T01:58:44.114Z,46.37
2019-06-20T02:01:18.703Z,46.51
2019-06-20T02:03:53.267Z,46.42
2019-06-20T02:06:27.615Z,46.13
2019-06-20T02:09:02.245Z,46.63
2019-06-20T02:11:37.152Z,45.83
2019-06-20T02:14:11.688Z,46.21
2019-06-20T02:16:46.241Z,46.21
2019-06-20T02:19:20.697Z,44.44
2019-06-20T02:21:53.700Z,45.93
2019-06-20T02:24:27.951Z,46.11
2019-06-20T02:27:02.344Z,46.32
2019-06-20T02:29:36.655Z,46.32
2019-06-20T02:32:11.105Z,46.77
2019-06-20T02:34:45.300Z,46.91
2019-06-20T02:37:19.861Z,46.91
2019-06-20T02:39:54.268Z,46.29
2019-06-20T02:42:28.706Z,46.29
2019-06-20T02:45:03.074Z,46.56
2019-06-20T02:47:37.697Z,45.43
2019-06-20T02:50:11.063Z,44.92
2019-06-20T02:52:45.756Z,46.68
2019-06-20T02:55:20.279Z,46.68
2019-06-20T02:57:55.871Z,47.58
2019-06-20T03:00:45.867Z,47.57
2019-06-20T03:03:20.104Z,48.37
2019-06-20T03:05:54.673Z,48.60
2019-06-20T03:08:29.685Z,48.50
2019-06-20T03:11:03.998Z,48.49
2019-06-20T03:13:38.337Z,49.12
2019-06-20T03:16:12.773Z,49.12
2019-06-20T03:18:45.805Z,49.46
2019-06-20T03:21:20.106Z,49.44
2019-06-20T03:23:54.663Z,49.06
2019-06-20T03:26:28.939Z,48.77
2019-06-20T03:29:03.277Z,48.80
2019-06-20T03:31:37.871Z,48.14
2019-06-20T03:34:12.296Z,48.17
2019-06-20T03:36:46.708Z,48.56
2019-06-20T03:39:21.113Z,47.71
2019-06-20T03:41:55.674Z,48.69
2019-06-20T03:44:30.119Z,48.69
2019-06-20T03:47:04.328Z,49.62
2019-06-20T03:49:38.678Z,49.62
2019-06-20T03:52:12.944Z,52.23
2019-06-20T03:54:47.659Z,56.30
2019-06-20T03:57:21.120Z,60.75
2019-06-20T03:59:55.308Z,61.89
2019-06-20T04:02:29.706Z,61.89
2019-06-20T04:05:03.959Z,62.70
2019-06-20T04:07:38.277Z,62.52
2019-06-20T04:10:13.278Z,62.12
2019-06-20T04:12:47.688Z,62.72
2019-06-20T04:15:22.143Z,62.54
2019-06-20T04:17:56.574Z,61.12
2019-06-20T04:20:31.073Z,61.12
2019-06-20T04:23:05.619Z,60.83
2019-06-20T04:25:40.069Z,60.83
2019-06-20T04:28:14.356Z,60.61
2019-06-20T04:30:48.867Z,60.61
2019-06-20T04:33:21.708Z,60.62
2019-06-20T04:35:55.950Z,60.92
2019-06-20T04:38:30.285Z,61.40
2019-06-20T04:41:04.745Z,61.54
2019-06-20T04:43:38.960Z,61.54
2019-06-20T04:46:27.948Z,61.74
2019-06-20T04:49:01.074Z,62.44
2019-06-20T04:51:35.508Z,62.02
2019-06-20T04:54:10.264Z,62.07
2019-06-20T04:56:44.668Z,61.41
2019-06-20T04:59:18.952Z,61.66
2019-06-20T05:01:53.251Z,60.94
2019-06-20T05:04:27.940Z,61.10
2019-06-20T05:07:13.275Z,60.62
2019-06-20T05:09:47.703Z,61.27
2019-06-20T05:12:21.104Z,60.11
2019-06-20T05:14:55.282Z,59.59
2019-06-20T05:17:29.874Z,60.06
2019-06-20T05:20:04.256Z,59.60
2019-06-20T05:22:38.719Z,57.91
2019-06-20T05:25:13.364Z,58.39
2019-06-20T05:27:47.711Z,57.45
2019-06-20T05:30:20.995Z,56.88
2019-06-20T05:32:54.119Z,56.02
2019-06-20T05:35:28.710Z,55.99
2019-06-20T05:38:02.356Z,55.99
2019-06-20T05:40:38.280Z,56.13
2019-06-20T05:43:12.963Z,55.49
2019-06-20T05:45:48.783Z,55.03
2019-06-20T05:48:25.413Z,55.04
2019-06-20T05:50:59.958Z,55.04
2019-06-20T05:53:34.282Z,54.11
2019-06-20T05:56:08.828Z,53.19
2019-06-20T05:58:43.303Z,53.53
2019-06-20T06:01:17.944Z,52.94
2019-06-20T06:03:52.305Z,52.41
2019-06-20T06:06:26.956Z,52.41
2019-06-20T06:09:00.021Z,52.95
2019-06-20T06:11:32.871Z,52.52
2019-06-20T06:14:07.643Z,52.49
2019-06-20T06:16:44.228Z,53.54
2019-06-20T06:19:17.075Z,54.03
2019-06-20T06:21:51.349Z,52.31
2019-06-20T06:24:26.228Z,53.04
2019-06-20T06:27:00.919Z,53.27
2019-06-20T06:29:35.324Z,53.27
2019-06-20T06:32:09.893Z,54.30
2019-06-20T06:34:44.334Z,55.26
2019-06-20T06:37:19.272Z,54.92
2019-06-20T06:39:53.772Z,55.45
2019-06-20T06:42:28.391Z,56.91
2019-06-20T06:45:02.939Z,56.91
2019-06-20T06:47:37.354Z,56.26
2019-06-20T06:50:13.898Z,56.50
2019-06-20T06:52:49.340Z,56.71
2019-06-20T06:55:27.449Z,57.40
2019-06-20T06:58:00.283Z,56.98
2019-06-20T07:00:34.735Z,55.63
2019-06-20T07:03:08.851Z,55.63
2019-06-20T07:05:45.214Z,55.86
2019-06-20T07:08:19.740Z,53.78
2019-06-20T07:10:54.090Z,53.78
2019-06-20T07:13:28.302Z,53.58
2019-06-20T07:16:03.186Z,53.23
2019-06-20T07:18:37.879Z,52.99
2019-06-20T07:21:12.662Z,52.13
2019-06-20T07:23:47.328Z,51.82
2019-06-20T07:26:21.797Z,51.79
2019-06-20T07:28:56.363Z,51.11
2019-06-20T07:31:31.285Z,50.66
2019-06-20T07:34:06.299Z,49.81
2019-06-20T07:36:41.299Z,49.21
2019-06-20T07:39:16.075Z,49.42
2019-06-20T07:41:50.692Z,48.33
2019-06-20T07:44:23.665Z,48.33
2019-06-20T07:46:57.913Z,47.84
2019-06-20T07:49:32.336Z,47.68
2019-06-20T07:52:06.858Z,47.79
2019-06-20T07:54:41.275Z,48.06
2019-06-20T07:57:15.868Z,48.05
2019-06-20T07:59:50.250Z,48.26
2019-06-20T08:02:25.648Z,49.04
2019-06-20T08:05:00.094Z,49.04
2019-06-20T08:07:34.560Z,50.09
2019-06-20T08:10:10.728Z,50.09
2019-06-20T08:12:43.698Z,49.53
2019-06-20T08:15:20.413Z,49.75
2019-06-20T08:17:54.973Z,49.78
2019-06-20T08:20:29.685Z,49.45
2019-06-20T08:23:03.949Z,49.45
2019-06-20T08:25:38.325Z,47.87
2019-06-20T08:28:12.701Z,47.87
2019-06-20T08:30:45.680Z,47.17
2019-06-20T08:33:19.954Z,46.84
2019-06-20T08:35:54.315Z,46.13
2019-06-20T08:38:28.783Z,46.13
2019-06-20T08:41:02.217Z,46.49
2019-06-20T08:43:36.645Z,45.15
2019-06-20T08:46:10.944Z,45.15
2019-06-20T08:48:45.120Z,44.91
2019-06-20T08:51:20.680Z,42.55
2019-06-20T08:53:56.319Z,41.11
2019-06-20T08:58:50.342Z,39.08
2019-06-20T09:01:25.205Z,38.31
2019-06-20T09:04:00.097Z,38.31
2019-06-20T09:06:34.697Z,38.12
2019-06-20T09:09:09.280Z,39.10
2019-06-20T09:11:43.341Z,39.37
2019-06-20T09:14:17.880Z,39.37
2019-06-20T09:16:52.290Z,38.80
2019-06-20T09:22:04.976Z,39.86
2019-06-20T09:24:39.645Z,39.08
2019-06-20T09:27:13.956Z,39.08
2019-06-20T09:29:48.272Z,37.51
2019-06-20T09:32:22.752Z,37.96
2019-06-20T09:34:56.944Z,37.76
2019-06-20T09:37:31.290Z,37.98
2019-06-20T09:40:06.182Z,38.46
2019-06-20T09:42:40.958Z,37.65
2019-06-20T09:45:15.903Z,38.81
2019-06-20T09:47:50.967Z,38.81
2019-06-20T09:50:26.663Z,38.30
2019-06-20T09:53:00.690Z,38.30
2019-06-20T09:55:34.921Z,38.34
2019-06-20T09:58:09.281Z,38.00
2019-06-20T10:00:43.875Z,37.19
2019-06-20T10:03:18.272Z,35.98
2019-06-20T10:05:52.704Z,36.30
2019-06-20T10:08:25.683Z,35.64
2019-06-20T10:10:59.957Z,36.02
2019-06-20T10:13:34.315Z,36.84
2019-06-20T10:16:08.724Z,36.84
2019-06-20T10:18:41.676Z,35.68
2019-06-20T10:21:15.949Z,35.35
2019-06-20T10:23:50.272Z,36.24
2019-06-20T10:26:24.890Z,35.61
2019-06-20T10:28:59.127Z,36.25
2019-06-20T10:31:33.671Z,37.88
2019-06-20T10:34:08.073Z,37.88
2019-06-20T10:36:43.968Z,38.35
2019-06-20T10:39:18.781Z,38.35
2019-06-20T10:41:52.343Z,39.19
2019-06-20T10:44:26.745Z,38.93
2019-06-20T10:46:59.656Z,38.75
2019-06-20T10:49:33.948Z,38.89
2019-06-20T10:52:08.718Z,36.57
2019-06-20T10:54:43.239Z,34.96
2019-06-20T10:57:18.665Z,32.36
2019-06-20T10:59:53.078Z,32.36
2019-06-20T11:02:27.675Z,29.39
2019-06-20T11:05:00.631Z,29.39
2019-06-20T11:07:35.075Z,30.03
2019-06-20T11:10:11.275Z,28.20
2019-06-20T11:12:53.039Z,28.20
2019-06-20T11:15:23.610Z,29.46
2019-06-20T11:17:57.136Z,29.34
2019-06-20T11:20:31.591Z,27.58
2019-06-20T11:23:05.940Z,27.58
2019-06-20T11:25:41.627Z,27.02
2019-06-20T11:28:16.266Z,26.58
2019-06-20T11:30:58.169Z,26.58
2019-06-20T11:33:26.922Z,27.14
2019-06-20T11:36:01.278Z,28.18
2019-06-20T11:38:35.951Z,25.86
2019-06-20T11:41:10.271Z,25.69
2019-06-20T11:43:45.109Z,24.26
2019-06-20T11:46:19.674Z,23.76
2019-06-20T11:48:52.666Z,23.76
2019-06-20T11:51:26.951Z,21.98
2019-06-20T11:54:01.289Z,19.70
2019-06-20T11:56:35.853Z,19.70
2019-06-20T11:59:10.254Z,21.56
2019-06-20T12:01:44.941Z,24.12
2019-06-20T12:04:19.280Z,24.32
2019-06-20T12:06:53.711Z,24.75
2019-06-20T12:09:26.703Z,22.73
2019-06-20T12:12:00.944Z,21.12
2019-06-20T12:14:35.276Z,22.38
2019-06-20T12:17:09.696Z,22.38
2019-06-20T12:19:44.578Z,23.27
2019-06-20T12:22:18.948Z,25.37
2019-06-20T12:24:53.630Z,25.52
2019-06-20T12:27:27.890Z,25.31
2019-06-20T12:30:02.322Z,24.08
2019-06-20T12:32:36.942Z,22.31
2019-06-20T12:35:12.280Z,21.76
2019-06-20T12:37:47.914Z,20.96
2019-06-20T12:40:24.708Z,21.90
2019-06-20T12:42:58.929Z,20.48
2019-06-20T12:45:33.297Z,18.71
2019-06-20T12:48:07.711Z,18.71
2019-06-20T12:50:41.476Z,17.89
2019-06-20T12:53:16.871Z,17.84
2019-06-20T12:55:51.345Z,16.93
2019-06-20T12:58:26.761Z,17.32
2019-06-20T13:01:01.335Z,16.91
2019-06-20T13:03:35.882Z,16.57
2019-06-20T13:06:10.275Z,16.53
2019-06-20T13:08:45.245Z,17.22
2019-06-20T13:13:11.945Z,16.38
2019-06-20T13:15:46.965Z,16.87
2019-06-20T13:18:21.332Z,16.57
2019-06-20T13:20:55.781Z,16.00
2019-06-20T13:23:28.796Z,16.06
2019-06-20T13:26:03.033Z,19.21
2019-06-20T13:28:54.152Z,17.46
2019-06-20T13:31:13.765Z,16.72
2019-06-20T13:33:46.870Z,16.64
2019-06-20T13:36:19.672Z,15.97
2019-06-20T13:38:54.142Z,17.45
2019-06-20T13:41:28.690Z,17.98
2019-06-20T13:44:01.694Z,17.18
2019-06-20T13:46:35.964Z,17.41
2019-06-20T13:49:10.672Z,18.52
2019-06-20T13:51:45.893Z,18.83
2019-06-20T13:54:20.281Z,19.33
2019-06-20T13:56:56.247Z,22.23
2019-06-20T13:59:30.709Z,22.94
2019-06-20T14:02:07.020Z,20.69
2019-06-20T14:04:41.044Z,23.51
2019-06-20T14:07:15.943Z,24.34
2019-06-20T14:09:51.157Z,25.63
2019-06-20T14:12:25.668Z,26.92
2019-06-20T14:14:59.946Z,27.16
2019-06-20T14:17:34.284Z,27.20
2019-06-20T14:20:10.276Z,28.51
2019-06-20T14:22:45.145Z,29.66
2019-06-20T14:25:19.878Z,30.31
2019-06-20T14:27:54.334Z,30.29
2019-06-20T14:30:29.106Z,30.45
2019-06-20T14:33:03.679Z,28.55
2019-06-20T14:35:37.938Z,28.55
2019-06-20T14:38:12.353Z,28.39
2019-06-20T14:40:48.271Z,29.20
2019-06-20T14:43:22.963Z,29.62
2019-06-20T14:45:57.748Z,29.55
2019-06-20T14:48:32.289Z,29.47
2019-06-20T14:51:06.770Z,29.18
2019-06-20T14:53:39.814Z,29.18
2019-06-20T14:56:12.873Z,29.50
2019-06-20T14:58:48.533Z,30.52
2019-06-20T15:01:22.891Z,31.61
2019-06-20T15:03:58.277Z,31.17
2019-06-20T15:06:32.691Z,30.35
2019-06-20T15:09:08.728Z,31.05
2019-06-20T15:11:46.525Z,31.32
2019-06-20T15:14:20.985Z,32.36
2019-06-20T15:16:55.465Z,31.80
2019-06-20T15:19:30.764Z,31.80
2019-06-20T15:22:04.300Z,32.74
2019-06-20T15:24:38.742Z,31.42
2019-06-20T15:27:13.646Z,31.39
2019-06-20T15:29:48.922Z,31.11
2019-06-20T15:32:27.977Z,32.82
2019-06-20T15:37:07.660Z,32.45
2019-06-20T15:39:42.963Z,32.51
2019-06-20T15:42:17.302Z,32.24
2019-06-20T15:44:53.441Z,32.65
2019-06-20T15:47:26.820Z,32.05
2019-06-20T15:50:01.330Z,31.97
2019-06-20T15:52:37.140Z,32.22
2019-06-20T15:55:12.835Z,32.24
2019-06-20T15:57:47.433Z,32.73
2019-06-20T16:00:23.925Z,32.52
2019-06-20T16:03:09.423Z,32.22
2019-06-20T16:05:35.960Z,32.22
2019-06-20T16:08:11.317Z,32.45
2019-06-20T16:10:46.297Z,32.45
2019-06-20T16:13:21.469Z,32.40
2019-06-20T16:15:56.722Z,32.97
2019-06-20T16:18:30.370Z,33.44
2019-06-20T16:21:06.290Z,31.61
2019-06-20T16:23:41.321Z,31.99
2019-06-20T16:26:16.336Z,31.74
2019-06-20T16:28:51.358Z,32.52
2019-06-20T16:32:59.008Z,32.10
2019-06-20T16:35:33.935Z,32.77
2019-06-20T16:38:10.355Z,32.77
2019-06-20T16:40:47.868Z,33.31
2019-06-20T16:43:22.594Z,33.20
2019-06-20T16:45:57.509Z,33.20
2019-06-20T16:48:32.288Z,33.61
2019-06-20T16:51:07.334Z,34.16
2019-06-20T16:53:41.707Z,33.95
2019-06-20T16:56:14.694Z,34.26
2019-06-20T16:58:48.942Z,34.49
2019-06-20T17:01:23.364Z,34.83
2019-06-20T17:03:57.880Z,34.66
2019-06-20T17:06:32.289Z,34.22
2019-06-20T17:09:09.392Z,34.32
2019-06-20T17:11:43.946Z,34.47
2019-06-20T17:14:18.318Z,34.98
2019-06-20T17:16:52.959Z,35.63
2019-06-20T17:19:27.320Z,35.88
2019-06-20T17:22:01.968Z,36.34
2019-06-20T17:24:36.292Z,36.60
2019-06-20T17:27:10.879Z,36.58
2019-06-20T17:29:45.272Z,36.69
2019-06-20T17:32:19.746Z,36.13
2019-06-20T17:34:52.799Z,36.26
2019-06-20T17:37:27.127Z,36.45
2019-06-20T17:40:01.750Z,36.99
2019-06-20T17:42:34.825Z,38.04
2019-06-20T17:45:09.936Z,38.72
2019-06-20T17:47:44.385Z,38.63
2019-06-20T17:50:19.627Z,38.50
2019-06-20T17:52:53.968Z,39.00
2019-06-20T17:55:28.309Z,39.18
2019-06-20T17:58:02.963Z,39.18
2019-06-20T18:00:38.782Z,39.63
2019-06-20T18:03:12.120Z,39.11
2019-06-20T18:05:46.635Z,39.76
2019-06-20T18:08:21.273Z,39.76
2019-06-20T18:10:55.685Z,40.04
2019-06-20T18:13:30.119Z,39.95
2019-06-20T18:16:04.742Z,40.09
2019-06-20T18:18:37.871Z,40.44
2019-06-20T18:21:12.291Z,40.17
2019-06-20T18:23:46.717Z,41.04
2019-06-20T18:26:19.800Z,41.93
2019-06-20T18:28:53.966Z,42.94
2019-06-20T18:31:28.320Z,43.04
2019-06-20T18:34:02.897Z,43.77
2019-06-20T18:36:37.293Z,44.30
2019-06-20T18:39:12.304Z,41.61
2019-06-20T18:41:47.731Z,41.61
2019-06-20T18:44:21.301Z,41.46
2019-06-20T18:46:57.263Z,41.54
2019-06-20T18:49:32.277Z,41.54
2019-06-20T18:52:07.953Z,41.55
2019-06-20T18:54:42.722Z,44.34
2019-06-20T18:57:17.289Z,44.34
2019-06-20T18:59:51.940Z,46.07
2019-06-20T19:02:26.320Z,51.78
2019-06-20T19:05:01.154Z,51.78
2019-06-20T19:07:36.523Z,55.08
2019-06-20T19:10:11.336Z,55.08
2019-06-20T19:12:45.964Z,55.83
2019-06-20T19:15:22.295Z,55.82
2019-06-20T19:17:57.304Z,56.17
2019-06-20T19:20:31.753Z,56.28
2019-06-20T19:23:04.798Z,57.41
2019-06-20T19:25:41.420Z,57.06
2019-06-20T19:28:16.462Z,56.06
2019-06-20T19:30:52.690Z,57.49
2019-06-20T19:33:27.296Z,57.79
2019-06-20T19:36:01.954Z,58.53
2019-06-20T19:38:36.878Z,59.72
2019-06-20T19:41:11.464Z,59.72
2019-06-20T19:43:46.074Z,59.79
2019-06-20T19:46:20.697Z,59.74
2019-06-20T19:48:55.289Z,59.74
2019-06-20T19:51:30.291Z,59.31
2019-06-20T19:54:04.790Z,60.14
2019-06-20T19:56:38.069Z,61.06
2019-06-20T19:59:12.402Z,61.24
2019-06-20T20:01:47.333Z,61.37
2019-06-20T20:04:21.948Z,61.00
2019-06-20T20:06:56.446Z,60.96
2019-06-20T20:09:31.273Z,61.15
2019-06-20T20:12:05.748Z,61.65
2019-06-20T20:14:40.278Z,61.58
2019-06-20T20:17:14.993Z,61.52
2019-06-20T20:19:49.756Z,61.81
2019-06-20T20:22:25.296Z,61.33
2019-06-20T20:25:00.301Z,60.84
2019-06-20T20:27:36.302Z,61.10
2019-06-20T20:30:12.326Z,61.40
2019-06-20T20:32:47.264Z,61.79
2019-06-20T20:35:34.801Z,62.03
2019-06-20T20:38:00.519Z,62.25
2019-06-20T20:40:35.296Z,62.32
2019-06-20T20:43:09.955Z,61.56
2019-06-20T20:45:44.704Z,61.15
2019-06-20T20:48:20.318Z,61.44
2019-06-20T20:50:54.954Z,61.55
2019-06-20T20:53:29.290Z,61.74
2019-06-20T20:56:03.739Z,61.73
2019-06-20T20:58:36.837Z,61.99
2019-06-20T21:01:22.303Z,62.26
2019-06-20T21:03:56.673Z,62.01
2019-06-20T21:06:31.329Z,61.80
2019-06-20T21:09:07.334Z,61.87
2019-06-20T21:11:41.946Z,61.76
2019-06-20T21:14:14.867Z,62.02
2019-06-20T21:16:49.299Z,61.79
2019-06-20T21:19:24.103Z,62.09
2019-06-20T21:21:58.821Z,60.82
2019-06-20T21:24:32.870Z,60.82
2019-06-20T21:27:07.108Z,60.11
2019-06-20T21:29:41.663Z,59.59
2019-06-20T21:32:15.959Z,59.59
2019-06-20T21:34:51.365Z,59.09
2019-06-20T21:37:25.947Z,59.43
2019-06-20T21:40:00.503Z,59.73
2019-06-20T21:42:34.982Z,60.01
2019-06-20T21:45:09.641Z,58.93
2019-06-20T21:47:44.004Z,58.60
2019-06-20T21:50:19.680Z,59.43
2019-06-20T21:52:53.042Z,59.98
2019-06-20T21:55:28.277Z,58.38
2019-06-20T21:58:02.922Z,57.28
2019-06-20T22:00:43.644Z,57.67
2019-06-20T22:03:26.618Z,57.52
2019-06-20T22:06:00.298Z,57.66
2019-06-20T22:08:34.791Z,57.45
2019-06-20T22:11:09.294Z,57.45
2019-06-20T22:13:49.316Z,57.45
2019-06-20T22:16:24.744Z,57.45
2019-06-20T22:18:59.980Z,57.17
2019-06-20T22:21:36.552Z,56.97
2019-06-20T22:24:12.472Z,56.97
2019-06-20T22:26:50.898Z,56.37
2019-06-20T22:29:27.303Z,55.71
2019-06-20T22:32:03.968Z,56.18
2019-06-20T22:34:39.279Z,56.18
2019-06-20T22:37:14.278Z,56.24
2019-06-20T22:39:48.778Z,56.33
2019-06-20T22:42:21.990Z,55.98
2019-06-20T22:44:56.274Z,55.78
2019-06-20T22:47:30.759Z,56.02
2019-06-20T22:50:05.301Z,55.52
2019-06-20T22:52:40.275Z,55.11
2019-06-20T22:55:15.293Z,55.44
2019-06-20T22:57:49.928Z,55.45
2019-06-20T23:00:24.445Z,55.03
2019-06-20T23:02:58.946Z,55.36
2019-06-20T23:05:33.284Z,55.39
2019-06-20T23:08:08.131Z,55.39
2019-06-20T23:10:42.874Z,55.32
2019-06-20T23:13:16.090Z,55.63
2019-06-20T23:15:50.106Z,55.63
2019-06-20T23:18:24.676Z,55.38
2019-06-20T23:21:04.681Z,55.20
2019-06-20T23:23:33.654Z,55.20
2019-06-20T23:26:09.557Z,55.38
2019-06-20T23:28:44.382Z,55.79
2019-06-20T23:31:18.892Z,55.79
2019-06-20T23:33:53.283Z,55.79
2019-06-20T23:36:27.726Z,56.22
2019-06-20T23:39:00.661Z,56.22
2019-06-20T23:41:35.288Z,56.96
2019-06-20T23:44:10.744Z,56.96
2019-06-20T23:46:45.268Z,57.12
2019-06-20T23:49:19.935Z,57.12
2019-06-20T23:51:59.277Z,57.51
2019-06-20T23:54:33.726Z,57.82
2019-06-20T23:57:06.670Z,58.05
2019-06-20T23:59:41.196Z,57.99
